createdAt,value
2018-07-09T00:00:19.134Z,557.4
2018-07-09T00:01:21.334Z,557.6
2018-07-09T00:02:23.785Z,558
2018-07-09T00:03:25.943Z,557.9
2018-07-09T00:04:28.120Z,557.6
2018-07-09T00:05:30.037Z,557.6
2018-07-09T00:06:31.942Z,558.1
2018-07-09T00:07:34.110Z,558
2018-07-09T00:08:36.264Z,557.9
2018-07-09T00:09:38.189Z,557.8
2018-07-09T00:10:40.624Z,558
2018-07-09T00:11:42.817Z,557.7
2018-07-09T00:12:44.996Z,557.8
2018-07-09T00:13:46.916Z,558
2018-07-09T00:14:49.356Z,557.5
2018-07-09T00:15:51.809Z,557.7
2018-07-09T00:16:54.259Z,557.9
2018-07-09T00:17:56.457Z,558
2018-07-09T00:18:58.899Z,557.9
2018-07-09T00:20:00.509Z,558.2
2018-07-09T00:21:02.947Z,557.7
2018-07-09T00:22:04.853Z,558.2
2018-07-09T00:23:07.040Z,558.4
2018-07-09T00:24:09.204Z,558.4
2018-07-09T00:25:11.093Z,558.4
2018-07-09T00:26:13.025Z,558.7
2018-07-09T00:27:15.459Z,558.9
2018-07-09T00:28:17.910Z,559
2018-07-09T00:29:20.095Z,558.9
2018-07-09T00:30:22.556Z,559.1
2018-07-09T00:31:25.004Z,558.8
2018-07-09T00:32:27.467Z,558.7
2018-07-09T00:33:29.653Z,559.1
2018-07-09T00:34:31.804Z,559
2018-07-09T00:35:33.977Z,559.1
2018-07-09T00:36:36.153Z,558.7
2018-07-09T00:37:38.047Z,559
2018-07-09T00:38:40.496Z,558.8
2018-07-09T00:39:42.672Z,558.9
2018-07-09T00:40:44.579Z,559
2018-07-09T00:41:46.727Z,559.3
2018-07-09T00:42:48.911Z,559.6
2018-07-09T00:43:51.099Z,559
2018-07-09T00:44:53.250Z,559.4
2018-07-09T00:45:55.696Z,559.7
2018-07-09T00:46:58.137Z,559.6
2018-07-09T00:48:00.045Z,559.7
2018-07-09T00:49:02.537Z,559.8
2018-07-09T00:50:04.716Z,559.8
2018-07-09T00:51:07.684Z,559.8
2018-07-09T00:52:10.201Z,559.8
2018-07-09T00:53:12.085Z,559.7
2018-07-09T00:54:14.270Z,559.8
2018-07-09T00:55:16.470Z,560
2018-07-09T00:56:18.369Z,559.8
2018-07-09T00:57:20.551Z,560
2018-07-09T00:58:22.706Z,560.1
2018-07-09T00:59:24.886Z,560.2
2018-07-09T01:00:26.761Z,559.9
2018-07-09T01:01:28.665Z,560.3
2018-07-09T01:02:30.904Z,560.1
2018-07-09T01:03:33.345Z,560.4
2018-07-09T01:04:34.986Z,560.6
2018-07-09T01:05:36.595Z,560.5
2018-07-09T01:06:39.048Z,560.2
2018-07-09T01:07:41.537Z,560.6
2018-07-09T01:08:43.976Z,561
2018-07-09T01:09:46.149Z,560.7
2018-07-09T01:10:48.608Z,560.8
2018-07-09T01:11:51.056Z,560.8
2018-07-09T01:12:53.233Z,560.7
2018-07-09T01:13:55.680Z,560.9
2018-07-09T01:14:58.119Z,561
2018-07-09T01:16:00.013Z,560.8
2018-07-09T01:17:02.446Z,560.6
2018-07-09T01:18:04.367Z,560.8
2018-07-09T01:19:06.542Z,560.9
2018-07-09T01:20:08.703Z,561.2
2018-07-09T01:21:11.150Z,561.2
2018-07-09T01:22:13.605Z,561.1
2018-07-09T01:23:15.216Z,561
2018-07-09T01:24:17.386Z,561
2018-07-09T01:25:19.563Z,561
2018-07-09T01:26:22.037Z,561.6
2018-07-09T01:27:24.217Z,561.6
2018-07-09T01:28:26.396Z,561.5
2018-07-09T01:29:28.296Z,561.3
2018-07-09T01:30:29.940Z,562
2018-07-09T01:31:32.402Z,561.7
2018-07-09T01:32:34.283Z,561.4
2018-07-09T01:33:36.460Z,561.5
2018-07-09T01:34:38.604Z,561.8
2018-07-09T01:35:40.766Z,561.6
2018-07-09T01:36:42.951Z,561.6
2018-07-09T01:37:44.892Z,561.5
2018-07-09T01:38:47.336Z,561.6
2018-07-09T01:39:49.506Z,561.4
2018-07-09T01:40:51.960Z,561.8
2018-07-09T01:41:54.135Z,561.2
2018-07-09T01:42:56.297Z,561.8
2018-07-09T01:43:58.448Z,562.1
2018-07-09T01:45:00.629Z,562
2018-07-09T01:46:02.812Z,562.1
2018-07-09T01:47:04.966Z,562.3
2018-07-09T01:48:07.422Z,562.1
2018-07-09T01:49:09.600Z,562
2018-07-09T01:50:12.068Z,562.5
2018-07-09T01:51:13.963Z,562.4
2018-07-09T01:52:16.423Z,562.4
2018-07-09T01:53:18.858Z,562.4
2018-07-09T01:54:21.296Z,562.4
2018-07-09T01:55:23.786Z,562.4
2018-07-09T01:56:26.219Z,562.2
2018-07-09T01:57:28.136Z,562.3
2018-07-09T01:58:30.297Z,562.2
2018-07-09T01:59:32.476Z,562.2
2018-07-09T02:00:34.395Z,562.4
2018-07-09T02:01:36.564Z,562.1
2018-07-09T02:02:39.064Z,562.5
2018-07-09T02:03:41.252Z,562.7
2018-07-09T02:04:43.706Z,562.9
2018-07-09T02:05:46.153Z,563
2018-07-09T02:06:48.338Z,562.6
2018-07-09T02:07:50.775Z,562.6
2018-07-09T02:08:53.222Z,563
2018-07-09T02:09:55.387Z,562.7
2018-07-09T02:10:57.581Z,562.9
2018-07-09T02:11:59.757Z,562.5
2018-07-09T02:13:01.932Z,562.5
2018-07-09T02:14:04.104Z,562.6
2018-07-09T02:15:06.296Z,562.5
2018-07-09T02:16:08.208Z,563
2018-07-09T02:17:10.096Z,562.4
2018-07-09T02:18:12.284Z,562.3
2018-07-09T02:19:13.948Z,562.5
2018-07-09T02:20:16.115Z,562.5
2018-07-09T02:21:18.307Z,562.4
2018-07-09T02:22:20.750Z,562.4
2018-07-09T02:23:23.208Z,562.3
2018-07-09T02:24:25.131Z,562.3
2018-07-09T02:25:27.592Z,562.3
2018-07-09T02:26:29.764Z,562.3
2018-07-09T02:27:31.960Z,562.1
2018-07-09T02:28:33.857Z,561.8
2018-07-09T02:29:36.027Z,562.1
2018-07-09T02:30:38.165Z,562.3
2018-07-09T02:31:40.360Z,562.3
2018-07-09T02:32:42.532Z,562.2
2018-07-09T02:33:44.432Z,562.3
2018-07-09T02:34:46.615Z,562.5
2018-07-09T02:35:48.518Z,562.4
2018-07-09T02:36:51.066Z,562.6
2018-07-09T02:37:52.968Z,562.9
2018-07-09T02:38:55.170Z,562.8
2018-07-09T02:39:57.068Z,562.5
2018-07-09T02:40:58.959Z,562.9
2018-07-09T02:42:01.432Z,562.5
2018-07-09T02:43:03.874Z,562.3
2018-07-09T02:44:06.034Z,562.6
2018-07-09T02:45:08.255Z,562.3
2018-07-09T02:46:10.430Z,562.6
2018-07-09T02:47:12.876Z,562.7
2018-07-09T02:48:15.315Z,562.6
2018-07-09T02:49:18.240Z,562.5
2018-07-09T02:50:20.700Z,562
2018-07-09T02:51:22.886Z,562.4
2018-07-09T02:52:25.329Z,562.1
2018-07-09T02:53:27.768Z,562.2
2018-07-09T02:54:29.939Z,562.1
2018-07-09T02:55:32.390Z,562.2
2018-07-09T02:56:34.295Z,561.7
2018-07-09T02:57:36.483Z,562.1
2018-07-09T02:58:38.666Z,561.8
2018-07-09T02:59:40.837Z,561.6
2018-07-09T03:00:43.577Z,561.5
2018-07-09T03:01:45.838Z,561.4
2018-07-09T03:02:48.012Z,561.5
2018-07-09T03:03:50.198Z,561.3
2018-07-09T03:04:52.397Z,561.5
2018-07-09T03:05:54.305Z,561.5
2018-07-09T03:06:56.480Z,561.5
2018-07-09T03:07:58.655Z,561.5
2018-07-09T03:09:00.819Z,561.2
2018-07-09T03:10:03.337Z,561.1
2018-07-09T03:11:05.787Z,561.3
2018-07-09T03:12:08.235Z,561.2
2018-07-09T03:13:10.416Z,561.2
2018-07-09T03:14:12.874Z,561.2
2018-07-09T03:15:15.040Z,560.9
2018-07-09T03:16:17.489Z,561
2018-07-09T03:17:19.668Z,560.9
2018-07-09T03:18:22.111Z,560.8
2018-07-09T03:19:24.286Z,560.7
2018-07-09T03:20:26.160Z,560.8
2018-07-09T03:21:28.072Z,560.7
2018-07-09T03:22:30.236Z,560.8
2018-07-09T03:23:32.403Z,560.9
2018-07-09T03:24:34.581Z,560.7
2018-07-09T03:25:36.478Z,561.3
2018-07-09T03:26:38.400Z,560.7
2018-07-09T03:27:40.316Z,560.8
2018-07-09T03:28:42.496Z,561.2
2018-07-09T03:29:45.420Z,561.2
2018-07-09T03:30:47.281Z,561
2018-07-09T03:31:49.426Z,561
2018-07-09T03:32:51.602Z,561.4
2018-07-09T03:33:53.793Z,561.2
2018-07-09T03:34:56.275Z,561.2
2018-07-09T03:35:58.737Z,561.3
2018-07-09T03:37:00.607Z,561.5
2018-07-09T03:38:03.000Z,561.3
2018-07-09T03:39:05.447Z,561.3
2018-07-09T03:40:07.634Z,561.1
2018-07-09T03:41:09.826Z,561.2
2018-07-09T03:42:12.005Z,560.9
2018-07-09T03:43:13.912Z,561.1
2018-07-09T03:44:16.088Z,561.2
2018-07-09T03:45:18.265Z,561.1
2018-07-09T03:46:20.437Z,561.2
2018-07-09T03:47:22.342Z,561.2
2018-07-09T03:48:24.516Z,561.1
2018-07-09T03:49:26.388Z,561
2018-07-09T03:50:28.839Z,560.9
2018-07-09T03:51:31.013Z,561.2
2018-07-09T03:52:33.173Z,561
2018-07-09T03:53:35.616Z,561
2018-07-09T03:54:38.063Z,561
2018-07-09T03:55:40.220Z,560.8
2018-07-09T03:56:42.395Z,561
2018-07-09T03:57:44.576Z,560.7
2018-07-09T03:58:46.745Z,560.4
2018-07-09T03:59:49.195Z,560.6
2018-07-09T04:00:51.644Z,560.6
2018-07-09T04:01:53.820Z,560.5
2018-07-09T04:02:56.381Z,560.4
2018-07-09T04:03:58.169Z,560.5
2018-07-09T04:05:00.418Z,560.3
2018-07-09T04:06:02.612Z,560.6
2018-07-09T04:07:04.816Z,560.3
2018-07-09T04:08:07.255Z,560.6
2018-07-09T04:09:09.439Z,560.8
2018-07-09T04:10:11.622Z,560.8
2018-07-09T04:11:14.070Z,560.7
2018-07-09T04:12:16.275Z,560.3
2018-07-09T04:13:18.737Z,560.3
2018-07-09T04:14:20.919Z,560.4
2018-07-09T04:15:23.095Z,560.3
2018-07-09T04:16:25.275Z,560.4
2018-07-09T04:17:27.447Z,560.6
2018-07-09T04:18:29.633Z,560.2
2018-07-09T04:19:31.508Z,559.8
2018-07-09T04:20:33.960Z,559.8
2018-07-09T04:21:35.869Z,559.8
2018-07-09T04:22:38.045Z,559.5
2018-07-09T04:23:40.202Z,559.9
2018-07-09T04:24:42.110Z,559.9
2018-07-09T04:25:44.281Z,559.7
2018-07-09T04:26:46.738Z,559.7
2018-07-09T04:27:49.184Z,559.6
2018-07-09T04:28:51.626Z,559.8
2018-07-09T04:29:54.083Z,559.9
2018-07-09T04:30:56.252Z,559.9
2018-07-09T04:31:57.892Z,559.6
2018-07-09T04:33:00.353Z,559.9
2018-07-09T04:34:02.907Z,559.9
2018-07-09T04:35:05.094Z,559.9
2018-07-09T04:36:07.270Z,560.2
2018-07-09T04:37:09.727Z,560
2018-07-09T04:38:12.175Z,560.1
2018-07-09T04:39:14.347Z,560
2018-07-09T04:40:16.516Z,560.1
2018-07-09T04:41:18.410Z,559.9
2018-07-09T04:42:20.870Z,560
2018-07-09T04:43:23.432Z,559.9
2018-07-09T04:44:25.345Z,559.9
2018-07-09T04:45:27.507Z,560
2018-07-09T04:46:29.960Z,560.2
2018-07-09T04:47:32.419Z,560
2018-07-09T04:48:34.863Z,560
2018-07-09T04:49:37.299Z,560.1
2018-07-09T04:50:39.757Z,560.1
2018-07-09T04:51:41.945Z,560.3
2018-07-09T04:52:44.397Z,560.3
2018-07-09T04:53:46.604Z,560.4
2018-07-09T04:54:48.505Z,560.4
2018-07-09T04:55:50.684Z,560.9
2018-07-09T04:56:53.140Z,560.5
2018-07-09T04:57:55.302Z,560.4
2018-07-09T04:58:57.477Z,560.5
2018-07-09T04:59:59.915Z,560.6
2018-07-09T05:01:02.119Z,560.3
2018-07-09T05:02:04.567Z,560.8
2018-07-09T05:03:06.491Z,561
2018-07-09T05:04:08.834Z,560.8
2018-07-09T05:05:11.290Z,561.2
2018-07-09T05:06:12.909Z,561.2
2018-07-09T05:07:14.825Z,560.8
2018-07-09T05:08:17.268Z,561.3
2018-07-09T05:09:19.723Z,561.3
2018-07-09T05:10:21.616Z,561.5
2018-07-09T05:11:24.063Z,561.5
2018-07-09T05:12:26.503Z,561.5
2018-07-09T05:13:28.685Z,561.7
2018-07-09T05:14:30.834Z,561.5
2018-07-09T05:15:33.286Z,561.7
2018-07-09T05:16:34.921Z,561.7
2018-07-09T05:17:37.087Z,561.7
2018-07-09T05:18:39.648Z,561.6
2018-07-09T05:19:41.961Z,561.7
2018-07-09T05:20:45.001Z,561.6
2018-07-09T05:21:47.294Z,561.6
2018-07-09T05:22:49.774Z,561.4
2018-07-09T05:23:51.670Z,561.3
2018-07-09T05:24:54.124Z,561.8
2018-07-09T05:25:55.757Z,561.8
2018-07-09T05:26:57.670Z,561.9
2018-07-09T05:27:59.550Z,561.7
2018-07-09T05:29:01.458Z,561.5
2018-07-09T05:30:03.362Z,561.7
2018-07-09T05:31:05.529Z,561.5
2018-07-09T05:32:07.991Z,561.8
2018-07-09T05:33:10.323Z,561.9
2018-07-09T05:34:12.225Z,561.9
2018-07-09T05:35:14.406Z,562.1
2018-07-09T05:36:16.287Z,562.2
2018-07-09T05:37:18.729Z,561.9
2018-07-09T05:38:21.187Z,562.2
2018-07-09T05:39:23.086Z,562.2
2018-07-09T05:40:25.534Z,562
2018-07-09T05:41:27.773Z,561.9
2018-07-09T05:42:29.679Z,562.3
2018-07-09T05:43:31.844Z,562.2
2018-07-09T05:44:34.285Z,562.2
2018-07-09T05:45:36.735Z,562.1
2018-07-09T05:46:38.649Z,562.2
2018-07-09T05:47:41.097Z,561.9
2018-07-09T05:48:43.577Z,562.1
2018-07-09T05:49:46.039Z,562
2018-07-09T05:50:48.486Z,561.8
2018-07-09T05:51:50.933Z,561.8
2018-07-09T05:52:53.117Z,561.8
2018-07-09T05:53:55.574Z,561.8
2018-07-09T05:54:58.032Z,561.7
2018-07-09T05:56:00.490Z,561.4
2018-07-09T05:57:02.671Z,561.4
2018-07-09T05:58:05.122Z,561.4
2018-07-09T05:59:07.568Z,561.4
2018-07-09T06:00:09.753Z,561.6
2018-07-09T06:01:12.210Z,561.5
2018-07-09T06:02:14.376Z,561.5
2018-07-09T06:03:16.287Z,561.5
2018-07-09T06:04:18.581Z,561.3
2018-07-09T06:05:21.096Z,561.5
2018-07-09T06:06:23.337Z,561.3
2018-07-09T06:07:25.352Z,561.4
2018-07-09T06:08:27.031Z,561.1
2018-07-09T06:09:29.193Z,561.5
2018-07-09T06:10:31.365Z,561.5
2018-07-09T06:11:33.427Z,561.3
2018-07-09T06:12:35.951Z,561.6
2018-07-09T06:13:38.469Z,561.6
2018-07-09T06:14:40.235Z,561.2
2018-07-09T06:15:42.689Z,561.2
2018-07-09T06:16:45.141Z,561
2018-07-09T06:17:47.316Z,561
2018-07-09T06:18:49.770Z,561
2018-07-09T06:19:51.658Z,560.4
2018-07-09T06:20:53.543Z,560.5
2018-07-09T06:21:55.985Z,560.8
2018-07-09T06:22:58.147Z,560.8
2018-07-09T06:24:00.317Z,560.8
2018-07-09T06:25:02.757Z,560.8
2018-07-09T06:26:04.906Z,561.2
2018-07-09T06:27:07.091Z,560.7
2018-07-09T06:28:09.535Z,561.4
2018-07-09T06:29:12.003Z,561.2
2018-07-09T06:30:14.451Z,561.4
2018-07-09T06:31:16.885Z,561
2018-07-09T06:32:19.064Z,561.2
2018-07-09T06:33:21.228Z,561.1
2018-07-09T06:34:23.138Z,561.6
2018-07-09T06:35:25.337Z,561.3
2018-07-09T06:36:27.227Z,561.2
2018-07-09T06:37:29.680Z,561.4
2018-07-09T06:38:31.867Z,561.3
2018-07-09T06:39:34.307Z,561.7
2018-07-09T06:40:36.469Z,561.4
2018-07-09T06:41:38.919Z,561.1
2018-07-09T06:42:41.081Z,561.4
2018-07-09T06:43:43.280Z,561.1
2018-07-09T06:44:45.645Z,561
2018-07-09T06:45:47.543Z,561
2018-07-09T06:46:49.997Z,560.9
2018-07-09T06:47:52.168Z,561
2018-07-09T06:48:54.320Z,560.9
2018-07-09T06:49:56.615Z,561.1
2018-07-09T06:50:59.045Z,561.4
2018-07-09T06:52:01.498Z,561
2018-07-09T06:53:03.944Z,560.9
2018-07-09T06:54:06.118Z,561.1
2018-07-09T06:55:08.297Z,561.2
2018-07-09T06:56:10.193Z,561.1
2018-07-09T06:57:12.637Z,561.3
2018-07-09T06:58:15.085Z,561.3
2018-07-09T06:59:17.257Z,561.5
2018-07-09T07:00:19.435Z,561.5
2018-07-09T07:01:21.617Z,561.5
2018-07-09T07:02:24.446Z,561.3
2018-07-09T07:03:26.974Z,561.6
2018-07-09T07:04:29.160Z,561.5
2018-07-09T07:05:31.607Z,561.1
2018-07-09T07:06:33.789Z,561.4
2018-07-09T07:07:36.278Z,561.3
2018-07-09T07:08:38.636Z,561.5
2018-07-09T07:09:41.079Z,561.4
2018-07-09T07:10:43.386Z,561.1
2018-07-09T07:11:45.561Z,561.1
2018-07-09T07:12:47.461Z,561.4
2018-07-09T07:13:49.631Z,561.4
2018-07-09T07:14:51.812Z,561.5
2018-07-09T07:15:53.723Z,561.5
2018-07-09T07:16:55.627Z,561.8
2018-07-09T07:17:57.801Z,561.8
2018-07-09T07:19:00.247Z,561.4
2018-07-09T07:20:02.398Z,561.6
2018-07-09T07:21:04.676Z,561.5
2018-07-09T07:22:06.644Z,561.5
2018-07-09T07:23:08.821Z,561.3
2018-07-09T07:24:10.987Z,561.2
2018-07-09T07:25:13.131Z,561.7
2018-07-09T07:26:15.580Z,561.7
2018-07-09T07:27:17.731Z,561.9
2018-07-09T07:28:20.183Z,561.7
2018-07-09T07:29:22.079Z,561.7
2018-07-09T07:30:23.974Z,561.9
2018-07-09T07:31:26.422Z,562
2018-07-09T07:32:28.597Z,562.1
2018-07-09T07:33:30.748Z,562
2018-07-09T07:34:32.917Z,561.7
2018-07-09T07:35:35.373Z,562
2018-07-09T07:36:37.325Z,562
2018-07-09T07:37:39.480Z,561.8
2018-07-09T07:38:41.938Z,561.8
2018-07-09T07:39:44.393Z,561.8
2018-07-09T07:40:46.846Z,561.5
2018-07-09T07:41:49.301Z,562
2018-07-09T07:42:51.191Z,561.6
2018-07-09T07:43:53.361Z,561.8
2018-07-09T07:44:56.093Z,561.7
2018-07-09T07:45:58.261Z,561.6
2018-07-09T07:47:00.144Z,561.5
2018-07-09T07:48:02.332Z,561.4
2018-07-09T07:49:04.497Z,561.7
2018-07-09T07:50:06.802Z,561.5
2018-07-09T07:51:08.981Z,561.7
2018-07-09T07:52:11.160Z,561.1
2018-07-09T07:53:13.345Z,561.7
2018-07-09T07:54:15.490Z,561.8
2018-07-09T07:55:17.950Z,561.7
2018-07-09T07:56:20.504Z,562.3
2018-07-09T07:57:22.948Z,562.2
2018-07-09T07:58:25.422Z,561.6
2018-07-09T07:59:27.890Z,562
2018-07-09T08:00:30.329Z,561.9
2018-07-09T08:01:32.504Z,561.7
2018-07-09T08:02:34.411Z,562
2018-07-09T08:03:36.602Z,562
2018-07-09T08:04:39.047Z,562.3
2018-07-09T08:05:41.501Z,562.8
2018-07-09T08:06:43.665Z,562.7
2018-07-09T08:07:45.857Z,562.6
2018-07-09T08:08:47.769Z,562.5
2018-07-09T08:09:49.958Z,562.7
2018-07-09T08:10:52.418Z,562.8
2018-07-09T08:12:59.657Z,563
2018-07-09T08:14:06.949Z,563
2018-07-09T08:15:09.505Z,563.2
2018-07-09T08:16:12.073Z,562.9
2018-07-09T08:17:14.310Z,562.9
2018-07-09T08:18:16.538Z,562.9
2018-07-09T08:19:18.435Z,563
2018-07-09T08:20:20.614Z,563.2
2018-07-09T08:21:23.129Z,563
2018-07-09T08:22:24.763Z,563.2
2018-07-09T08:23:26.909Z,563.3
2018-07-09T08:24:29.356Z,563.3
2018-07-09T08:25:31.846Z,563.5
2018-07-09T08:26:34.357Z,563.5
2018-07-09T08:27:36.830Z,563.5
2018-07-09T08:28:39.289Z,563.6
2018-07-09T08:29:41.168Z,563.4
2018-07-09T08:30:43.634Z,563.7
2018-07-09T08:31:46.074Z,564
2018-07-09T08:32:48.271Z,564.2
2018-07-09T08:33:50.731Z,563.9
2018-07-09T08:34:53.189Z,564.1
2018-07-09T08:35:55.635Z,564
2018-07-09T08:36:57.813Z,564
2018-07-09T08:38:00.070Z,564.4
2018-07-09T08:39:01.806Z,564.3
2018-07-09T08:40:04.270Z,564
2018-07-09T08:41:06.419Z,563.8
2018-07-09T08:42:08.872Z,564
2018-07-09T08:43:11.019Z,563.9
2018-07-09T08:44:12.634Z,564.1
2018-07-09T08:45:15.088Z,564.5
2018-07-09T08:46:17.287Z,564.1
2018-07-09T08:47:19.962Z,564
2018-07-09T08:48:22.423Z,563.9
2018-07-09T08:49:24.567Z,564.1
2018-07-09T08:50:26.776Z,564.7
2018-07-09T08:51:28.940Z,564.8
2018-07-09T08:52:31.081Z,564.7
2018-07-09T08:53:33.526Z,564.8
2018-07-09T08:54:35.977Z,565.2
2018-07-09T08:55:38.155Z,565.3
2018-07-09T08:56:40.636Z,565
2018-07-09T08:57:43.090Z,565.1
2018-07-09T08:58:45.539Z,565.1
2018-07-09T08:59:47.717Z,564.8
2018-07-09T09:00:49.604Z,565
2018-07-09T09:01:51.777Z,565
2018-07-09T09:02:53.947Z,564.6
2018-07-09T09:03:56.224Z,564.6
2018-07-09T09:04:58.113Z,564.6
2018-07-09T09:06:00.291Z,564.7
2018-07-09T09:07:02.733Z,564.7
2018-07-09T09:08:05.194Z,564.6
2018-07-09T09:09:07.633Z,564.7
2018-07-09T09:10:10.076Z,564.8
2018-07-09T09:11:12.599Z,564.7
2018-07-09T09:12:15.052Z,564.9
2018-07-09T09:13:17.265Z,564.9
2018-07-09T09:14:19.701Z,565.1
2018-07-09T09:15:21.846Z,564.6
2018-07-09T09:16:24.038Z,564.7
2018-07-09T09:17:26.227Z,564.5
2018-07-09T09:18:28.671Z,564.7
2018-07-09T09:19:30.847Z,564.4
2018-07-09T09:20:33.029Z,564.6
2018-07-09T09:21:34.926Z,564.7
2018-07-09T09:22:37.111Z,564.6
2018-07-09T09:23:39.569Z,564.8
2018-07-09T09:24:41.751Z,564.8
2018-07-09T09:25:43.632Z,565.1
2018-07-09T09:26:46.078Z,565.4
2018-07-09T09:27:48.526Z,565.3
2018-07-09T09:28:50.989Z,565.7
2018-07-09T09:29:53.175Z,565.6
2018-07-09T09:30:55.357Z,565.5
2018-07-09T09:31:57.543Z,565.7
2018-07-09T09:32:59.433Z,565.6
2018-07-09T09:34:01.879Z,565.5
2018-07-09T09:35:04.323Z,565.8
2018-07-09T09:36:06.492Z,566
2018-07-09T09:37:08.969Z,566
2018-07-09T09:38:11.153Z,565.9
2018-07-09T09:39:13.607Z,565.7
2018-07-09T09:40:15.787Z,565.7
2018-07-09T09:41:17.671Z,565.8
2018-07-09T09:42:19.823Z,565.6
2018-07-09T09:43:21.992Z,565.9
2018-07-09T09:44:24.182Z,566
2018-07-09T09:45:26.627Z,565.8
2018-07-09T09:46:29.080Z,566
2018-07-09T09:47:30.416Z,565.8
2018-07-09T09:48:32.590Z,566
2018-07-09T09:49:35.041Z,565.6
2018-07-09T09:50:37.233Z,566.2
2018-07-09T09:51:39.687Z,565.6
2018-07-09T09:52:42.129Z,566
2018-07-09T09:53:44.286Z,566.2
2018-07-09T09:54:46.465Z,566.4
2018-07-09T09:55:48.651Z,566.2
2018-07-09T09:56:51.091Z,566.4
2018-07-09T09:57:53.555Z,566.4
2018-07-09T09:58:55.717Z,566.4
2018-07-09T09:59:58.165Z,566.2
2018-07-09T10:01:00.622Z,566.5
2018-07-09T10:02:03.075Z,566.3
2018-07-09T10:03:05.263Z,566.7
2018-07-09T10:04:07.444Z,566.4
2018-07-09T10:05:09.648Z,566.2
2018-07-09T10:06:12.388Z,566
2018-07-09T10:07:14.829Z,565.9
2018-07-09T10:08:16.999Z,565.9
2018-07-09T10:09:18.929Z,566.4
2018-07-09T10:10:20.836Z,566.3
2018-07-09T10:11:23.031Z,566.1
2018-07-09T10:12:25.216Z,566.3
2018-07-09T10:13:27.399Z,566.4
2018-07-09T10:14:29.271Z,566.7
2018-07-09T10:15:31.454Z,566.2
2018-07-09T10:16:33.601Z,566.2
2018-07-09T10:17:36.068Z,566.5
2018-07-09T10:18:38.245Z,566.4
2018-07-09T10:19:40.412Z,566.2
2018-07-09T10:20:42.602Z,566.5
2018-07-09T10:21:45.059Z,566.4
2018-07-09T10:22:47.767Z,566.2
2018-07-09T10:23:49.955Z,566.4
2018-07-09T10:24:51.599Z,566.5
2018-07-09T10:25:53.772Z,566.6
2018-07-09T10:26:55.974Z,566.6
2018-07-09T10:27:58.161Z,566.3
2018-07-09T10:29:00.658Z,566.2
2018-07-09T10:30:02.314Z,566.3
2018-07-09T10:31:04.498Z,566.8
2018-07-09T10:32:06.949Z,566.6
2018-07-09T10:33:08.830Z,566.8
2018-07-09T10:34:11.285Z,567
2018-07-09T10:35:13.465Z,566.7
2018-07-09T10:36:15.091Z,567.1
2018-07-09T10:37:17.545Z,566.9
2018-07-09T10:38:19.695Z,567.2
2018-07-09T10:39:21.327Z,567.3
2018-07-09T10:40:23.513Z,567.4
2018-07-09T10:41:25.689Z,567.3
2018-07-09T10:42:27.895Z,567.2
2018-07-09T10:43:30.068Z,567.5
2018-07-09T10:44:32.226Z,567.3
2018-07-09T10:45:34.129Z,567.3
2018-07-09T10:46:36.300Z,567.4
2018-07-09T10:47:38.753Z,567.9
2018-07-09T10:48:40.943Z,568
2018-07-09T10:49:42.819Z,567.9
2018-07-09T10:50:45.016Z,568
2018-07-09T10:51:47.189Z,568
2018-07-09T10:52:49.657Z,568.3
2018-07-09T10:53:52.106Z,568
2018-07-09T10:54:54.299Z,568.4
2018-07-09T10:55:56.188Z,568.5
2018-07-09T10:56:58.375Z,568.4
2018-07-09T10:58:00.550Z,568.6
2018-07-09T10:59:02.439Z,568.5
2018-07-09T11:00:04.342Z,568.2
2018-07-09T11:01:06.524Z,568.1
2018-07-09T11:02:08.708Z,568.5
2018-07-09T11:03:11.173Z,568.7
2018-07-09T11:04:13.623Z,568.1
2018-07-09T11:05:16.090Z,568.2
2018-07-09T11:06:17.962Z,568.2
2018-07-09T11:07:20.163Z,568.6
2018-07-09T11:08:22.066Z,567.9
2018-07-09T11:09:24.251Z,568.3
2018-07-09T11:10:26.427Z,568
2018-07-09T11:11:28.620Z,567.7
2018-07-09T11:12:31.061Z,568.3
2018-07-09T11:13:33.512Z,568.4
2018-07-09T11:14:35.429Z,567.9
2018-07-09T11:15:37.650Z,568.3
2018-07-09T11:16:40.108Z,568.1
2018-07-09T11:17:42.014Z,568.6
2018-07-09T11:18:44.457Z,568.5
2018-07-09T11:19:46.902Z,568.3
2018-07-09T11:20:49.081Z,568
2018-07-09T11:21:51.524Z,568
2018-07-09T11:22:53.695Z,568.5
2018-07-09T11:23:55.885Z,568.4
2018-07-09T11:24:58.054Z,568.4
2018-07-09T11:25:59.978Z,569
2018-07-09T11:27:02.157Z,569.4
2018-07-09T11:28:04.406Z,569.3
2018-07-09T11:29:06.599Z,569.5
2018-07-09T11:30:09.049Z,569.4
2018-07-09T11:31:11.235Z,569.4
2018-07-09T11:32:13.697Z,569.3
2018-07-09T11:33:15.607Z,569.4
2018-07-09T11:34:18.083Z,570.1
2018-07-09T11:35:20.271Z,569.9
2018-07-09T11:36:22.977Z,570.2
2018-07-09T11:37:25.099Z,570.1
2018-07-09T11:38:27.540Z,570.4
2018-07-09T11:39:29.705Z,570.8
2018-07-09T11:40:32.166Z,570.6
2018-07-09T11:41:34.371Z,570.4
2018-07-09T11:42:36.559Z,571
2018-07-09T11:43:38.741Z,570.7
2018-07-09T11:44:41.072Z,570.9
2018-07-09T11:45:43.244Z,571.3
2018-07-09T11:46:45.429Z,570.8
2018-07-09T11:47:47.377Z,570.9
2018-07-09T11:48:49.841Z,571.2
2018-07-09T11:49:52.295Z,571.1
2018-07-09T11:50:54.463Z,571.1
2018-07-09T11:51:56.364Z,571.1
2018-07-09T11:52:58.546Z,571.2
2018-07-09T11:54:00.997Z,570.8
2018-07-09T11:55:03.451Z,571
2018-07-09T11:56:05.785Z,571
2018-07-09T11:57:07.965Z,571.3
2018-07-09T11:58:10.156Z,571.5
2018-07-09T11:59:12.365Z,571.2
2018-07-09T12:00:14.546Z,571.3
2018-07-09T12:01:16.988Z,571.8
2018-07-09T12:02:19.442Z,571.7
2018-07-09T12:03:21.899Z,571.6
2018-07-09T12:04:24.339Z,572.2
2018-07-09T12:05:26.797Z,572
2018-07-09T12:06:28.960Z,572.3
2018-07-09T12:07:30.336Z,572.3
2018-07-09T12:08:32.512Z,572.3
2018-07-09T12:09:34.704Z,572.3
2018-07-09T12:10:36.637Z,572.7
2018-07-09T12:11:39.093Z,572.6
2018-07-09T12:12:41.529Z,572.9
2018-07-09T12:13:43.709Z,572.6
2018-07-09T12:14:45.888Z,573
2018-07-09T12:15:47.501Z,572.8
2018-07-09T12:16:49.695Z,572.4
2018-07-09T12:17:51.598Z,572.4
2018-07-09T12:18:54.060Z,572.5
2018-07-09T12:19:56.237Z,572.8
2018-07-09T12:20:58.691Z,572.3
2018-07-09T12:22:00.859Z,572.5
2018-07-09T12:23:02.759Z,572.1
2018-07-09T12:24:04.668Z,572.5
2018-07-09T12:25:07.114Z,572.7
2018-07-09T12:26:09.314Z,572.5
2018-07-09T12:27:10.968Z,572.6
2018-07-09T12:28:13.114Z,573
2018-07-09T12:29:15.780Z,573
2018-07-09T12:30:18.348Z,573.2
2018-07-09T12:31:20.796Z,573.1
2018-07-09T12:32:22.957Z,573.4
2018-07-09T12:33:25.428Z,573.4
2018-07-09T12:34:27.883Z,573.3
2018-07-09T12:35:30.061Z,573.3
2018-07-09T12:36:32.673Z,573.4
2018-07-09T12:37:34.924Z,573.6
2018-07-09T12:38:37.115Z,573.6
2018-07-09T12:39:39.564Z,573.7
2018-07-09T12:40:41.756Z,573.8
2018-07-09T12:41:44.228Z,573.2
2018-07-09T12:42:46.676Z,573.7
2018-07-09T12:43:49.035Z,573.9
2018-07-09T12:44:51.497Z,573.7
2018-07-09T12:45:53.376Z,574.2
2018-07-09T12:46:55.568Z,573.9
2018-07-09T12:47:58.009Z,574
2018-07-09T12:49:00.176Z,574.1
2018-07-09T12:50:02.658Z,573.8
2018-07-09T12:51:04.844Z,574
2018-07-09T12:52:07.009Z,574.4
2018-07-09T12:53:09.460Z,574.3
2018-07-09T12:54:11.922Z,574.4
2018-07-09T12:55:14.368Z,574.3
2018-07-09T12:56:16.555Z,574.6
2018-07-09T12:57:18.987Z,574.2
2018-07-09T12:58:20.875Z,574.8
2018-07-09T12:59:23.055Z,574.6
2018-07-09T13:00:24.947Z,575
2018-07-09T13:01:27.211Z,574.4
2018-07-09T13:02:29.662Z,574.4
2018-07-09T13:03:32.103Z,574.4
2018-07-09T13:04:34.551Z,574.6
2018-07-09T13:05:36.734Z,574.4
2018-07-09T13:06:39.186Z,574.5
2018-07-09T13:07:41.644Z,574.6
2018-07-09T13:08:43.810Z,574.9
2018-07-09T13:09:45.711Z,574.8
2018-07-09T13:10:47.878Z,574.8
2018-07-09T13:11:49.797Z,574.7
2018-07-09T13:12:51.447Z,575.2
2018-07-09T13:13:53.889Z,575.4
2018-07-09T13:14:56.070Z,575.3
2018-07-09T13:15:58.526Z,574.9
2018-07-09T13:17:00.970Z,575.5
2018-07-09T13:18:03.134Z,575.2
2018-07-09T13:19:05.590Z,575.2
2018-07-09T13:20:07.542Z,575.3
2018-07-09T13:21:09.736Z,575.7
2018-07-09T13:22:12.186Z,576
2018-07-09T13:23:14.395Z,576.3
2018-07-09T13:24:16.028Z,575.8
2018-07-09T13:25:17.963Z,576.1
2018-07-09T13:26:20.139Z,576.5
2018-07-09T13:27:22.330Z,576.5
2018-07-09T13:28:24.766Z,576.5